Time;durP1;ratioP1;P1;durP2;ratioP2;P2;SDS_P1;SDS_P2;PMS_P1;PMS_P2;Temp;Humidity;BMP_temperature;BMP_pressure;BME280_temperature;BME280_humidity;BME280_pressure;Samples;Min_cycle;Max_cycle;Signal;HPM_P1;HPM_P2
2023/05/29 00:00:43;;;;;;;5.90;3.43;;;14.30;99.90;;;;;;5136441;27;20201;-80
2023/05/29 00:03:10;;;;;;;7.82;3.92;;;14.20;99.90;;;;;;5139537;27;20874;-80
2023/05/29 00:05:37;;;;;;;5.07;3.90;;;14.10;99.90;;;;;;5127902;27;20212;-80
2023/05/29 00:08:06;;;;;;;7.28;4.00;;;14.00;99.90;;;;;;5128793;27;20212;-79
2023/05/29 00:10:33;;;;;;;9.25;4.00;;;13.90;99.90;;;;;;5131312;27;20684;-77
2023/05/29 00:13:01;;;;;;;8.57;3.55;;;13.70;99.90;;;;;;5114046;27;20223;-81
2023/05/29 00:15:30;;;;;;;7.57;3.90;;;13.60;99.90;;;;;;5120588;27;20205;-80
2023/05/29 00:17:56;;;;;;;8.77;4.20;;;13.60;99.90;;;;;;5140899;27;20243;-78
2023/05/29 00:20:23;;;;;;;6.93;3.60;;;13.60;99.90;;;;;;5132621;27;20197;-80
2023/05/29 00:22:50;;;;;;;7.70;3.87;;;13.70;99.90;;;;;;5126894;27;20883;-80
2023/05/29 00:25:19;;;;;;;7.33;3.97;;;13.60;99.90;;;;;;5122714;27;20240;-79
2023/05/29 00:27:46;;;;;;;7.80;3.80;;;13.40;99.90;;;;;;5131184;27;20212;-80
2023/05/29 00:30:13;;;;;;;5.83;3.77;;;13.50;99.90;;;;;;5137678;27;20200;-79
2023/05/29 00:32:40;;;;;;;6.20;3.60;;;13.40;99.90;;;;;;5137435;27;20225;-78
2023/05/29 00:35:08;;;;;;;6.97;3.70;;;13.30;99.90;;;;;;5124046;27;20197;-79
2023/05/29 00:37:35;;;;;;;6.77;3.33;;;13.10;99.90;;;;;;5128823;27;20655;-79
2023/05/29 00:40:02;;;;;;;9.83;3.97;;;13.10;99.90;;;;;;5129337;27;20628;-79
2023/05/29 00:42:30;;;;;;;8.20;3.87;;;13.30;99.90;;;;;;5138871;27;20224;-78
2023/05/29 00:44:57;;;;;;;12.23;3.63;;;13.20;99.90;;;;;;5118279;27;20216;-79
2023/05/29 00:47:24;;;;;;;8.03;3.93;;;13.10;99.90;;;;;;5122156;27;20308;-79
2023/05/29 00:49:52;;;;;;;8.20;3.70;;;13.20;99.90;;;;;;5137857;27;20200;-80
2023/05/29 00:52:20;;;;;;;7.37;3.63;;;13.10;99.90;;;;;;5129080;27;20221;-80
2023/05/29 00:54:47;;;;;;;9.83;3.90;;;12.90;99.90;;;;;;5129248;27;20197;-80
2023/05/29 00:57:15;;;;;;;6.63;3.87;;;13.00;99.90;;;;;;5128018;27;20196;-78
2023/05/29 00:59:44;;;;;;;11.30;3.57;;;13.00;99.90;;;;;;5120942;27;20197;-80
2023/05/29 01:02:12;;;;;;;12.70;3.80;;;12.90;99.90;;;;;;5133050;27;20212;-78
2023/05/29 01:04:39;;;;;;;7.23;3.63;;;12.80;99.90;;;;;;5129201;27;20208;-79
2023/05/29 01:07:06;;;;;;;7.43;3.83;;;12.80;99.90;;;;;;5118335;27;20223;-80
2023/05/29 01:09:36;;;;;;;6.00;3.40;;;12.90;99.90;;;;;;5132737;27;20226;-79
2023/05/29 01:12:17;;;;;;;9.10;3.73;;;12.70;99.90;;;;;;5131385;27;20224;-80
2023/05/29 01:14:54;;;;;;;7.30;3.47;;;12.80;99.90;;;;;;5131201;27;20227;-79
2023/05/29 01:17:29;;;;;;;7.50;3.60;;;12.70;99.90;;;;;;5127714;27;20578;-79
2023/05/29 01:20:21;;;;;;;8.20;4.00;;;12.60;99.90;;;;;;5137906;27;20611;-80
2023/05/29 01:23:04;;;;;;;7.03;3.37;;;12.70;99.90;;;;;;5121174;27;20220;-78
2023/05/29 01:25:47;;;;;;;8.07;3.23;;;12.60;99.90;;;;;;5127691;27;20224;-78
2023/05/29 01:28:20;;;;;;;11.37;3.53;;;12.40;99.90;;;;;;5127488;27;20250;-78
2023/05/29 01:30:48;;;;;;;7.53;3.60;;;12.40;99.90;;;;;;5131492;27;20200;-79
2023/05/29 01:33:15;;;;;;;9.03;3.53;;;12.30;99.90;;;;;;5131530;27;20236;-78
2023/05/29 01:35:42;;;;;;;6.63;3.17;;;12.30;99.90;;;;;;5126207;27;20203;-78
2023/05/29 01:38:09;;;;;;;11.20;3.53;;;12.20;99.90;;;;;;5121434;27;20193;-78
2023/05/29 01:40:36;;;;;;;8.10;3.67;;;12.20;99.90;;;;;;5128157;27;20204;-79
2023/05/29 01:43:03;;;;;;;8.27;3.07;;;12.20;99.90;;;;;;5123741;27;20221;-79
2023/05/29 01:45:32;;;;;;;6.30;3.50;;;12.10;99.90;;;;;;5125291;27;20201;-80
2023/05/29 01:47:59;;;;;;;8.13;3.40;;;12.20;99.90;;;;;;5139215;27;20212;-78
2023/05/29 01:50:26;;;;;;;10.10;3.33;;;12.30;99.90;;;;;;5135015;27;20675;-78
2023/05/29 01:52:53;;;;;;;7.30;3.17;;;12.00;99.90;;;;;;5130859;27;20250;-79
2023/05/29 01:55:20;;;;;;;7.57;3.27;;;12.00;99.90;;;;;;5127547;27;20202;-78
2023/05/29 01:57:48;;;;;;;8.20;2.93;;;12.00;99.90;;;;;;5119154;27;20193;-79
2023/05/29 02:00:18;;;;;;;5.87;3.30;;;12.00;99.90;;;;;;5134978;27;20216;-80
2023/05/29 02:02:47;;;;;;;9.27;3.57;;;12.10;99.90;;;;;;5113697;28;20212;-77
2023/05/29 02:05:13;;;;;;;7.27;3.20;;;12.00;99.90;;;;;;5122467;27;20216;-80
2023/05/29 02:07:40;;;;;;;6.33;3.43;;;11.90;99.90;;;;;;5138686;27;20307;-80
2023/05/29 02:10:07;;;;;;;8.90;3.23;;;11.90;99.90;;;;;;5136248;27;20202;-79
2023/05/29 02:12:34;;;;;;;11.83;4.13;;;11.80;99.90;;;;;;5129987;27;20232;-78
2023/05/29 02:15:01;;;;;;;7.30;3.20;;;11.70;99.90;;;;;;5136085;27;20200;-80
2023/05/29 02:17:28;;;;;;;9.83;3.33;;;11.80;99.90;;;;;;5124355;27;20687;-79
2023/05/29 02:19:56;;;;;;;10.30;3.30;;;11.80;99.90;;;;;;5125272;27;20559;-80
2023/05/29 02:22:22;;;;;;;7.13;3.40;;;11.80;99.90;;;;;;5130834;27;20286;-79
2023/05/29 02:24:49;;;;;;;10.77;3.90;;;11.80;99.90;;;;;;5134659;27;20209;-79
2023/05/29 02:27:16;;;;;;;9.73;3.23;;;11.70;99.90;;;;;;5127407;28;20219;-80
2023/05/29 02:29:43;;;;;;;13.17;3.67;;;11.70;99.90;;;;;;5130913;27;20199;-80
2023/05/29 02:32:10;;;;;;;6.07;3.10;;;11.70;99.90;;;;;;5130361;28;20303;-79
2023/05/29 02:34:37;;;;;;;8.37;3.00;;;11.70;99.90;;;;;;5129967;27;20197;-79
2023/05/29 02:37:05;;;;;;;8.77;3.53;;;11.70;99.90;;;;;;5133293;27;20209;-80
2023/05/29 02:39:32;;;;;;;8.13;3.00;;;11.60;99.90;;;;;;5127749;28;20197;-80
2023/05/29 02:41:59;;;;;;;8.63;3.90;;;11.50;99.90;;;;;;5129275;27;20226;-79
2023/05/29 02:44:26;;;;;;;7.77;3.30;;;11.40;99.90;;;;;;5129816;27;20204;-80
2023/05/29 02:46:53;;;;;;;9.03;3.10;;;11.30;99.90;;;;;;5129953;27;20198;-79
2023/05/29 02:49:19;;;;;;;7.70;4.03;;;11.30;99.90;;;;;;5129061;27;20207;-80
2023/05/29 02:51:46;;;;;;;12.13;4.20;;;11.40;99.90;;;;;;5133858;27;20683;-78
2023/05/29 02:54:14;;;;;;;6.60;2.90;;;11.30;99.90;;;;;;5134222;28;20270;-78
2023/05/29 02:56:41;;;;;;;6.57;3.20;;;11.50;99.90;;;;;;5129931;27;20224;-77
2023/05/29 02:59:08;;;;;;;9.70;3.00;;;11.40;99.90;;;;;;5131645;27;20252;-79
2023/05/29 03:01:35;;;;;;;8.67;3.23;;;11.30;99.90;;;;;;5130241;28;20705;-78
2023/05/29 03:04:01;;;;;;;8.67;3.03;;;11.40;99.90;;;;;;5133696;27;20200;-78
2023/05/29 03:06:28;;;;;;;8.20;2.77;;;11.40;99.90;;;;;;5130191;28;20203;-79
2023/05/29 03:08:55;;;;;;;7.40;2.77;;;11.20;99.90;;;;;;5132684;27;20304;-79
2023/05/29 03:11:24;;;;;;;8.10;3.30;;;11.20;99.90;;;;;;5133345;27;20200;-78
2023/05/29 03:13:51;;;;;;;9.60;3.00;;;11.10;99.90;;;;;;5127437;27;20216;-78
2023/05/29 03:16:18;;;;;;;7.30;2.77;;;11.20;99.90;;;;;;5126978;27;20200;-77
2023/05/29 03:18:45;;;;;;;7.00;2.87;;;11.20;99.90;;;;;;5129687;27;20197;-78
2023/05/29 03:21:11;;;;;;;7.20;3.20;;;11.10;99.90;;;;;;5120285;28;20246;-78
2023/05/29 03:23:38;;;;;;;8.07;2.77;;;11.10;99.90;;;;;;5115938;27;20229;-77
2023/05/29 03:26:05;;;;;;;6.43;2.87;;;11.10;99.90;;;;;;5120785;28;20211;-78
2023/05/29 03:28:34;;;;;;;9.57;3.20;;;11.10;99.90;;;;;;5121026;27;20688;-79
2023/05/29 03:31:01;;;;;;;5.83;2.70;;;11.20;99.90;;;;;;5123145;27;20205;-78
2023/05/29 03:33:28;;;;;;;8.87;3.00;;;11.10;99.90;;;;;;5121062;27;20227;-77
2023/05/29 03:35:55;;;;;;;10.20;3.23;;;11.20;99.90;;;;;;5119464;27;20201;-78
2023/05/29 03:38:22;;;;;;;6.03;2.70;;;11.20;99.90;;;;;;5121215;27;20196;-79
2023/05/29 03:40:48;;;;;;;10.30;2.97;;;11.20;99.90;;;;;;5129737;27;20666;-79
2023/05/29 03:43:15;;;;;;;7.53;3.00;;;11.20;99.90;;;;;;5128423;27;20259;-79
2023/05/29 03:45:43;;;;;;;6.67;3.43;;;11.10;99.90;;;;;;5131441;27;20197;-79
2023/05/29 03:48:10;;;;;;;10.13;2.83;;;11.10;99.90;;;;;;5132749;27;20219;-80
2023/05/29 03:50:37;;;;;;;7.90;2.53;;;11.10;99.90;;;;;;5132949;27;20199;-78
2023/05/29 03:53:04;;;;;;;7.37;2.77;;;11.20;99.90;;;;;;5130867;27;20235;-79
2023/05/29 03:55:32;;;;;;;10.60;3.23;;;11.20;99.90;;;;;;5138963;27;20207;-79
2023/05/29 03:57:59;;;;;;;8.57;2.77;;;11.20;99.90;;;;;;5131539;27;20197;-79
2023/05/29 04:00:26;;;;;;;8.63;3.03;;;11.30;99.90;;;;;;5121613;27;20209;-77
2023/05/29 04:02:56;;;;;;;7.50;3.07;;;11.30;99.90;;;;;;5119460;27;20231;-77
2023/05/29 04:05:23;;;;;;;8.47;2.70;;;11.20;99.90;;;;;;5113403;27;20204;-78
2023/05/29 04:07:50;;;;;;;8.10;3.30;;;11.00;99.90;;;;;;5127743;27;20221;-77
2023/05/29 04:10:17;;;;;;;7.33;2.93;;;11.30;99.90;;;;;;5118926;27;20201;-79
2023/05/29 04:12:44;;;;;;;8.30;2.80;;;11.30;99.90;;;;;;5120592;27;20231;-79
2023/05/29 04:15:11;;;;;;;8.40;3.00;;;11.30;99.90;;;;;;5115468;27;20209;-79
2023/05/29 04:17:37;;;;;;;9.37;2.70;;;11.20;99.90;;;;;;5118749;27;20264;-79
2023/05/29 04:20:08;;;;;;;7.77;2.63;;;11.60;99.90;;;;;;5108869;27;20204;-78
2023/05/29 04:22:35;;;;;;;10.00;2.90;;;12.70;99.90;;;;;;5115673;27;20264;-79
2023/05/29 04:25:03;;;;;;;7.27;2.90;;;12.80;99.90;;;;;;5122466;27;20226;-79
2023/05/29 04:27:32;;;;;;;6.90;2.90;;;12.70;99.90;;;;;;5117058;27;20201;-79
2023/05/29 04:30:00;;;;;;;9.00;2.70;;;12.30;99.90;;;;;;5120502;27;20204;-80
2023/05/29 04:32:27;;;;;;;9.47;3.00;;;11.90;99.90;;;;;;5119863;27;20229;-78
2023/05/29 04:34:53;;;;;;;13.63;3.13;;;11.80;99.90;;;;;;5123584;27;20201;-78
2023/05/29 04:37:29;;;;;;;10.17;3.20;;;11.70;99.90;;;;;;5115479;27;20243;-77
2023/05/29 04:39:56;;;;;;;7.23;3.20;;;11.70;99.90;;;;;;5113722;27;20584;-79
2023/05/29 04:42:24;;;;;;;7.60;2.83;;;11.80;99.90;;;;;;5106166;27;20255;-77
2023/05/29 04:44:52;;;;;;;9.23;2.87;;;11.70;99.90;;;;;;5114981;27;20297;-79
2023/05/29 04:47:19;;;;;;;7.23;3.33;;;11.70;99.90;;;;;;5114837;27;20229;-80
2023/05/29 04:49:48;;;;;;;9.20;2.80;;;11.60;99.90;;;;;;5112827;27;20228;-79
2023/05/29 04:52:16;;;;;;;8.30;3.37;;;11.70;99.90;;;;;;5112449;27;20270;-79
2023/05/29 04:54:44;;;;;;;6.47;2.60;;;11.80;99.90;;;;;;5116672;27;20550;-80
2023/05/29 04:57:11;;;;;;;10.63;3.30;;;11.80;99.90;;;;;;5119744;27;20216;-78
2023/05/29 04:59:38;;;;;;;5.60;2.83;;;11.90;99.90;;;;;;5114496;27;20201;-78
2023/05/29 05:02:05;;;;;;;10.90;3.20;;;11.90;99.90;;;;;;5109338;27;20221;-77
2023/05/29 05:04:33;;;;;;;9.07;2.83;;;11.90;99.90;;;;;;5117307;27;20265;-77
2023/05/29 05:07:00;;;;;;;8.13;2.80;;;12.10;99.90;;;;;;5118209;27;20209;-78
2023/05/29 05:09:27;;;;;;;8.40;3.00;;;12.20;99.90;;;;;;5116962;27;20217;-77
2023/05/29 05:11:55;;;;;;;10.57;3.07;;;12.30;99.90;;;;;;5117274;27;20246;-78
2023/05/29 05:14:22;;;;;;;9.67;3.50;;;12.10;99.90;;;;;;5109024;27;20292;-77
2023/05/29 05:16:50;;;;;;;10.70;3.10;;;12.30;99.90;;;;;;5112038;28;20197;-78
2023/05/29 05:19:17;;;;;;;8.03;3.00;;;12.60;99.90;;;;;;5112961;27;20265;-80
2023/05/29 05:21:44;;;;;;;6.37;3.30;;;12.40;99.90;;;;;;5116071;27;20204;-79
2023/05/29 05:24:12;;;;;;;10.90;3.70;;;12.80;99.90;;;;;;5113102;27;20570;-77
2023/05/29 05:26:39;;;;;;;10.03;2.60;;;13.20;99.90;;;;;;5111862;27;20204;-78
2023/05/29 05:29:07;;;;;;;7.03;2.63;;;13.10;99.90;;;;;;5112819;27;20237;-80
2023/05/29 05:31:34;;;;;;;7.20;2.67;;;13.20;99.90;;;;;;5110121;27;20273;-78
2023/05/29 05:34:01;;;;;;;9.70;3.10;;;13.10;99.90;;;;;;5114630;27;20208;-79
2023/05/29 05:36:27;;;;;;;8.40;2.63;;;12.90;99.90;;;;;;5116325;27;20204;-79
2023/05/29 05:38:54;;;;;;;9.80;3.07;;;13.10;99.90;;;;;;5120859;27;20201;-78
2023/05/29 05:41:22;;;;;;;7.70;2.80;;;13.10;99.90;;;;;;5115621;27;20261;-77
2023/05/29 05:43:49;;;;;;;7.57;2.70;;;13.70;99.90;;;;;;5121610;27;20220;-79
2023/05/29 05:46:17;;;;;;;9.13;2.80;;;14.50;99.90;;;;;;5117584;27;20209;-79
2023/05/29 05:48:44;;;;;;;6.40;2.67;;;15.30;99.90;;;;;;5115469;27;20217;-78
2023/05/29 05:51:13;;;;;;;10.57;3.40;;;15.70;99.90;;;;;;5118993;27;20272;-78
2023/05/29 05:53:40;;;;;;;11.65;2.85;;;15.30;99.90;;;;;;5113811;28;20277;-81
2023/05/29 05:56:07;;;;;;;8.48;3.00;;;14.20;99.90;;;;;;5107461;27;20651;-79
2023/05/29 05:58:34;;;;;;;9.30;2.92;;;13.90;99.90;;;;;;5116752;27;20211;-80
2023/05/29 06:01:01;;;;;;;8.07;2.50;;;13.70;99.90;;;;;;5123945;27;20579;-80
2023/05/29 06:03:29;;;;;;;8.93;2.73;;;13.80;99.90;;;;;;5124218;27;20228;-81
2023/05/29 06:05:56;;;;;;;8.73;3.20;;;13.70;99.90;;;;;;5118729;27;20211;-80
2023/05/29 06:08:23;;;;;;;8.43;2.80;;;13.80;99.90;;;;;;5128992;27;20247;-78
2023/05/29 06:10:49;;;;;;;11.13;2.80;;;13.80;99.90;;;;;;5129710;27;20203;-78
2023/05/29 06:13:16;;;;;;;7.90;2.90;;;13.80;99.90;;;;;;5125356;27;20289;-78
2023/05/29 06:15:43;;;;;;;12.77;3.53;;;13.90;99.90;;;;;;5116223;28;20284;-78
2023/05/29 06:18:11;;;;;;;7.97;3.07;;;14.00;99.90;;;;;;5127724;27;20200;-78
2023/05/29 06:20:39;;;;;;;9.90;3.20;;;13.80;99.90;;;;;;5139146;27;20253;-78
2023/05/29 06:23:06;;;;;;;7.53;2.80;;;13.90;99.90;;;;;;5126485;27;20272;-78
2023/05/29 06:25:33;;;;;;;7.87;2.90;;;14.10;99.90;;;;;;5113036;27;20201;-78
2023/05/29 06:28:00;;;;;;;6.43;3.27;;;14.10;99.90;;;;;;5121206;27;20578;-78
2023/05/29 06:30:27;;;;;;;8.47;3.03;;;14.00;99.90;;;;;;5118728;27;20748;-78
2023/05/29 06:32:54;;;;;;;11.33;3.03;;;14.10;99.90;;;;;;5117834;28;20229;-81
2023/05/29 06:35:21;;;;;;;9.93;3.30;;;14.20;99.90;;;;;;5125791;27;20306;-78
2023/05/29 06:37:49;;;;;;;10.10;3.13;;;14.10;99.90;;;;;;5124672;27;20237;-78
2023/05/29 06:40:16;;;;;;;7.63;2.70;;;14.20;99.90;;;;;;5126358;27;20664;-78
2023/05/29 06:42:45;;;;;;;13.55;3.10;;;14.20;99.90;;;;;;5126077;28;20265;-78
2023/05/29 06:45:13;;;;;;;11.43;3.10;;;14.10;99.90;;;;;;5126482;27;20197;-79
2023/05/29 06:47:40;;;;;;;13.77;3.17;;;14.20;99.90;;;;;;5137917;27;20204;-79
2023/05/29 06:50:08;;;;;;;7.37;2.60;;;14.40;99.90;;;;;;5122129;27;20624;-80
2023/05/29 06:52:35;;;;;;;8.25;2.65;;;14.30;99.90;;;;;;5126344;27;20238;-79
2023/05/29 06:55:04;;;;;;;9.53;2.60;;;14.30;99.90;;;;;;5132467;27;20855;-80
2023/05/29 06:57:31;;;;;;;10.03;3.10;;;14.30;99.90;;;;;;5134507;27;20573;-79
2023/05/29 06:59:57;;;;;;;10.10;3.77;;;14.20;99.90;;;;;;5127888;27;20226;-79
2023/05/29 07:02:24;;;;;;;11.40;2.90;;;14.10;99.90;;;;;;5132543;27;20224;-78
2023/05/29 07:04:51;;;;;;;8.70;2.47;;;14.30;99.90;;;;;;5137908;27;20597;-79
2023/05/29 07:07:18;;;;;;;10.03;2.93;;;14.50;99.90;;;;;;5138390;27;20220;-79
2023/05/29 07:09:45;;;;;;;9.03;2.50;;;14.60;99.90;;;;;;5124205;27;20212;-77
2023/05/29 07:12:13;;;;;;;8.57;2.70;;;14.40;99.90;;;;;;5137282;27;20225;-79
2023/05/29 07:14:40;;;;;;;9.67;2.80;;;14.30;99.90;;;;;;5128238;27;20200;-79
2023/05/29 07:17:07;;;;;;;8.75;2.80;;;14.40;99.90;;;;;;5122645;27;20215;-80
2023/05/29 07:19:34;;;;;;;10.90;3.13;;;14.50;99.90;;;;;;5131439;27;20205;-78
2023/05/29 07:22:01;;;;;;;15.73;3.80;;;14.60;99.90;;;;;;5120335;27;20247;-79
2023/05/29 07:24:28;;;;;;;10.30;3.73;;;14.60;99.90;;;;;;5117260;27;20279;-79
2023/05/29 07:26:55;;;;;;;6.77;2.90;;;14.70;99.90;;;;;;5129719;27;20736;-79
2023/05/29 07:29:24;;;;;;;11.10;3.03;;;14.70;99.90;;;;;;5120289;27;20216;-78
2023/05/29 07:31:50;;;;;;;11.83;3.00;;;14.80;99.90;;;;;;5120860;28;20196;-77
2023/05/29 07:34:17;;;;;;;10.67;2.67;;;15.00;99.90;;;;;;5137778;27;20225;-79
2023/05/29 07:37:02;;;;;;;11.60;3.23;;;14.80;99.90;;;;;;5129035;27;20207;-79
2023/05/29 07:39:29;;;;;;;12.45;3.00;;;15.00;99.90;;;;;;5123445;27;20195;-80
2023/05/29 07:41:56;;;;;;;11.85;3.35;;;14.90;99.90;;;;;;5126100;27;20231;-78
2023/05/29 07:44:24;;;;;;;8.97;3.10;;;14.70;99.90;;;;;;5129358;27;20211;-79
2023/05/29 07:46:51;;;;;;;8.30;2.92;;;14.80;99.90;;;;;;5128274;27;20299;-79
2023/05/29 07:49:18;;;;;;;15.80;3.63;;;14.90;99.90;;;;;;5126992;27;20927;-80
2023/05/29 07:51:45;;;;;;;8.80;2.85;;;14.90;99.90;;;;;;5140605;27;20200;-80
2023/05/29 07:54:12;;;;;;;10.03;3.03;;;15.10;99.90;;;;;;5132221;27;20203;-78
2023/05/29 07:56:40;;;;;;;9.52;2.85;;;15.10;99.90;;;;;;5136062;27;20230;-77
2023/05/29 07:59:08;;;;;;;7.72;2.63;;;15.20;99.90;;;;;;5119699;27;20204;-77
2023/05/29 08:01:38;;;;;;;8.43;2.88;;;14.80;99.90;;;;;;5128064;27;20204;-80
2023/05/29 08:04:05;;;;;;;14.27;3.50;;;15.40;99.90;;;;;;5128321;27;20288;-79
2023/05/29 08:06:33;;;;;;;7.55;2.80;;;15.40;99.90;;;;;;5128455;27;20227;-79
2023/05/29 08:09:01;;;;;;;10.88;2.95;;;15.40;99.90;;;;;;5119927;27;20225;-80
2023/05/29 08:11:28;;;;;;;9.02;3.17;;;15.50;99.90;;;;;;5134704;27;20208;-80
2023/05/29 08:13:55;;;;;;;9.15;2.80;;;15.30;99.90;;;;;;5128256;27;20270;-79
2023/05/29 08:16:22;;;;;;;7.43;2.47;;;15.50;99.90;;;;;;5128888;27;20201;-78
2023/05/29 08:18:50;;;;;;;10.95;2.70;;;15.70;99.90;;;;;;5124005;27;20200;-77
2023/05/29 08:21:17;;;;;;;9.43;2.55;;;15.80;99.90;;;;;;5123847;27;20212;-78
2023/05/29 08:23:44;;;;;;;7.53;3.13;;;16.00;99.90;;;;;;5131307;27;20299;-77
2023/05/29 08:26:10;;;;;;;9.60;3.30;;;16.00;99.90;;;;;;5131840;27;20196;-78
2023/05/29 08:28:37;;;;;;;10.23;2.40;;;15.90;99.90;;;;;;5131860;27;20204;-79
2023/05/29 08:31:04;;;;;;;5.25;2.42;;;16.10;99.90;;;;;;5131383;27;20196;-78
2023/05/29 08:33:31;;;;;;;5.82;2.28;;;15.90;99.90;;;;;;5130312;27;20280;-80
2023/05/29 08:36:01;;;;;;;6.93;2.15;;;16.20;99.90;;;;;;5134367;27;20201;-79
2023/05/29 08:38:27;;;;;;;7.90;2.67;;;16.10;99.90;;;;;;5129236;27;20208;-79
2023/05/29 08:40:57;;;;;;;10.52;3.10;;;16.10;99.90;;;;;;5131773;27;20575;-79
2023/05/29 08:43:24;;;;;;;10.50;3.05;;;16.20;99.90;;;;;;5131246;27;20223;-79
2023/05/29 08:45:55;;;;;;;7.60;2.58;;;16.10;99.90;;;;;;5130581;27;20287;-78
2023/05/29 08:48:25;;;;;;;8.45;2.30;;;16.20;99.90;;;;;;5131963;27;20200;-78
2023/05/29 08:50:54;;;;;;;4.85;2.30;;;16.30;99.90;;;;;;5127220;27;20213;-79
2023/05/29 08:53:23;;;;;;;6.13;2.40;;;16.90;99.90;;;;;;5125444;27;20316;-79
2023/05/29 08:55:52;;;;;;;7.28;2.80;;;16.70;1.00;;;;;;5125458;27;20197;-78
2023/05/29 08:58:20;;;;;;;8.95;2.65;;;17.00;99.90;;;;;;5125743;27;20235;-79
2023/05/29 09:00:48;;;;;;;4.57;2.03;;;17.00;99.90;;;;;;5104596;27;20192;-79
2023/05/29 09:03:15;;;;;;;8.90;3.03;;;17.80;1.00;;;;;;5129086;27;20307;-80
2023/05/29 09:05:43;;;;;;;8.95;2.75;;;17.80;99.90;;;;;;5129475;27;20231;-79
2023/05/29 09:08:11;;;;;;;6.32;2.60;;;17.80;1.00;;;;;;5121525;27;20279;-78
2023/05/29 09:10:41;;;;;;;8.20;2.33;;;17.30;1.00;;;;;;5128187;27;20220;-79
2023/05/29 09:13:09;;;;;;;9.13;2.45;;;17.50;1.00;;;;;;5122542;27;20213;-79
2023/05/29 09:15:38;;;;;;;8.50;2.80;;;17.60;99.90;;;;;;5126885;27;20204;-78
2023/05/29 09:18:05;;;;;;;10.57;2.92;;;17.50;1.00;;;;;;5123156;27;20231;-79
2023/05/29 09:20:32;;;;;;;8.25;2.80;;;17.50;99.90;;;;;;5127543;27;20270;-78
2023/05/29 09:23:02;;;;;;;5.03;2.22;;;18.10;99.90;;;;;;5124569;27;20220;-79
2023/05/29 09:25:31;;;;;;;8.15;2.90;;;18.30;1.00;;;;;;5127047;27;20732;-79
2023/05/29 09:28:02;;;;;;;9.35;2.70;;;18.60;1.00;;;;;;5133097;27;20231;-78
2023/05/29 09:30:36;;;;;;;7.28;2.63;;;18.20;1.00;;;;;;5125324;27;20248;-80
2023/05/29 09:33:05;;;;;;;7.20;2.70;;;18.20;99.90;;;;;;5125045;27;20227;-78
2023/05/29 09:35:39;;;;;;;7.45;2.83;;;18.80;1.00;;;;;;5127055;27;20212;-79
2023/05/29 09:38:07;;;;;;;9.20;2.83;;;18.80;1.00;;;;;;5128209;27;20202;-77
2023/05/29 09:40:36;;;;;;;7.68;2.42;;;18.70;99.90;;;;;;5127125;27;20207;-78
2023/05/29 09:43:11;;;;;;;44.03;5.43;;;18.50;1.00;;;;;;5128467;27;20281;-77
2023/05/29 09:45:40;;;;;;;5.25;2.58;;;18.80;1.00;;;;;;5126649;27;20235;-77
2023/05/29 09:48:08;;;;;;;7.63;2.70;;;19.00;1.00;;;;;;5124404;27;20227;-80
2023/05/29 09:50:35;;;;;;;8.50;2.17;;;19.00;99.90;;;;;;5125927;27;20225;-79
2023/05/29 09:53:03;;;;;;;9.13;2.92;;;19.00;99.90;;;;;;5121261;27;20225;-78
2023/05/29 09:55:33;;;;;;;6.47;2.90;;;19.20;1.00;;;;;;5117439;27;20220;-78
2023/05/29 09:58:01;;;;;;;10.10;2.63;;;19.50;11.60;;;;;;5129786;27;20204;-79
2023/05/29 10:00:30;;;;;;;8.75;2.83;;;19.60;1.00;;;;;;5130532;28;20636;-80
2023/05/29 10:02:57;;;;;;;11.77;2.92;;;19.40;1.00;;;;;;5132015;27;20219;-80
2023/05/29 10:05:24;;;;;;;8.20;2.78;;;19.40;1.00;;;;;;5130313;27;20569;-78
2023/05/29 10:07:54;;;;;;;8.80;2.90;;;19.40;1.00;;;;;;5123249;27;20208;-78
2023/05/29 10:10:23;;;;;;;7.45;2.72;;;19.30;1.00;;;;;;5122345;27;20224;-80
2023/05/29 10:12:51;;;;;;;7.75;2.40;;;19.20;99.90;;;;;;5129015;27;20224;-78
2023/05/29 10:15:19;;;;;;;8.18;2.75;;;19.50;1.00;;;;;;5116524;27;20644;-77
2023/05/29 10:17:52;;;;;;;9.60;2.50;;;20.00;1.00;;;;;;5119003;27;20659;-77
2023/05/29 10:20:21;;;;;;;8.85;2.67;;;19.50;1.00;;;;;;5130716;27;20257;-77
2023/05/29 10:22:50;;;;;;;7.53;2.35;;;19.30;1.00;;;;;;5112439;28;20221;-77
2023/05/29 10:25:20;;;;;;;6.85;2.67;;;20.00;1.00;;;;;;5120782;27;20210;-78
2023/05/29 10:27:47;;;;;;;10.52;2.33;;;19.80;99.90;;;;;;5120237;27;20669;-80
2023/05/29 10:30:23;;;;;;;8.77;2.55;;;19.40;42.80;;;;;;5122723;27;20217;-80
2023/05/29 10:33:08;;;;;;;8.23;2.70;;;20.40;99.90;;;;;;5119930;27;20219;-80
2023/05/29 10:35:45;;;;;;;11.43;2.75;;;20.50;20.10;;;;;;5122932;27;20201;-78
2023/05/29 10:38:15;;;;;;;8.43;2.40;;;21.20;1.00;;;;;;5129024;27;20207;-80
2023/05/29 10:40:42;;;;;;;6.85;2.17;;;20.80;65.10;;;;;;5131635;27;20211;-79
2023/05/29 10:43:11;;;;;;;4.95;2.38;;;20.30;99.90;;;;;;5127990;27;20226;-80
2023/05/29 10:45:53;;;;;;;5.88;2.42;;;20.60;1.00;;;;;;5130322;27;20219;-77
2023/05/29 10:48:44;;;;;;;7.15;2.78;;;20.00;1.00;;;;;;5127709;27;20197;-78
2023/05/29 10:51:27;;;;;;;5.82;2.22;;;19.50;1.00;;;;;;5115198;28;20221;-79
2023/05/29 10:53:54;;;;;;;10.77;2.80;;;19.20;99.90;;;;;;5122925;27;20242;-78
2023/05/29 10:56:25;;;;;;;6.47;2.30;;;19.40;1.00;;;;;;5122494;27;20205;-80
2023/05/29 10:58:55;;;;;;;5.75;2.10;;;20.40;1.00;;;;;;5116660;27;20206;-79
2023/05/29 11:01:24;;;;;;;6.47;2.20;;;19.40;1.00;;;;;;5130431;27;20201;-77
2023/05/29 11:03:54;;;;;;;5.38;2.42;;;19.00;1.00;;;;;;5128453;27;20224;-80
2023/05/29 11:06:23;;;;;;;3.75;2.22;;;19.70;1.00;;;;;;5133314;27;20204;-80
2023/05/29 11:08:55;;;;;;;7.43;2.40;;;19.00;1.00;;;;;;5125466;27;20265;-80
2023/05/29 11:11:32;;;;;;;6.97;2.45;;;19.60;1.00;;;;;;5125803;27;20240;-80
2023/05/29 11:14:04;;;;;;;7.75;2.60;;;20.50;99.90;;;;;;5113535;27;20281;-79
2023/05/29 11:16:38;;;;;;;5.50;2.33;;;21.10;99.90;;;;;;5127789;27;20675;-77
2023/05/29 11:19:09;;;;;;;7.40;2.95;;;21.30;99.90;;;;;;5130395;27;20223;-79
2023/05/29 11:21:54;;;;;;;7.15;2.72;;;21.40;20.70;;;;;;5132249;27;20732;-77
2023/05/29 11:24:23;;;;;;;5.60;2.67;;;22.00;13.20;;;;;;5132829;27;20268;-80
2023/05/29 11:26:52;;;;;;;6.88;2.90;;;22.10;1.00;;;;;;5120833;27;20197;-78
2023/05/29 11:29:22;;;;;;;4.22;2.17;;;21.70;1.00;;;;;;5132412;27;20220;-77
2023/05/29 11:31:56;;;;;;;5.10;2.42;;;21.70;1.00;;;;;;5121122;27;20291;-78
2023/05/29 11:34:27;;;;;;;9.20;2.75;;;22.30;1.00;;;;;;5128305;27;20204;-79
2023/05/29 11:36:54;;;;;;;3.97;2.78;;;21.80;1.00;;;;;;5128948;27;20641;-78
2023/05/29 11:39:20;;;;;;;8.55;2.65;;;22.30;1.00;;;;;;5129041;27;20201;-78
2023/05/29 11:41:51;;;;;;;9.32;2.58;;;22.20;1.00;;;;;;5122059;27;20199;-77
2023/05/29 11:44:18;;;;;;;8.02;2.30;;;22.20;1.00;;;;;;5133088;27;20204;-79
2023/05/29 11:46:45;;;;;;;7.60;2.88;;;21.80;99.90;;;;;;5121869;27;20283;-79
2023/05/29 11:49:12;;;;;;;5.65;2.70;;;22.30;99.90;;;;;;5131969;27;20192;-78
2023/05/29 11:51:43;;;;;;;7.32;2.55;;;22.90;99.90;;;;;;5123478;27;20292;-79
2023/05/29 11:54:12;;;;;;;7.53;2.83;;;23.00;99.90;;;;;;5132164;27;20205;-79
2023/05/29 11:56:40;;;;;;;6.22;2.92;;;21.40;99.90;;;;;;5127989;27;20209;-79
2023/05/29 11:59:12;;;;;;;6.75;2.58;;;21.80;99.90;;;;;;5124923;27;20208;-79
2023/05/29 12:01:39;;;;;;;7.22;2.50;;;22.00;1.20;;;;;;5135875;27;20214;-79
2023/05/29 12:04:16;;;;;;;7.50;2.47;;;22.20;1.00;;;;;;5128052;27;20207;-80
2023/05/29 12:06:44;;;;;;;4.43;2.13;;;22.60;1.00;;;;;;5122303;27;20208;-78
2023/05/29 12:09:25;;;;;;;6.22;2.35;;;22.80;1.00;;;;;;5131875;27;20196;-78
2023/05/29 12:11:52;;;;;;;6.60;2.60;;;22.80;1.00;;;;;;5118349;27;20220;-79
2023/05/29 12:14:18;;;;;;;6.45;2.47;;;22.70;1.00;;;;;;5129557;27;20307;-78
2023/05/29 12:16:45;;;;;;;6.03;2.55;;;23.00;1.00;;;;;;5117727;27;20724;-78
2023/05/29 12:19:12;;;;;;;6.28;2.53;;;23.20;1.00;;;;;;5118960;28;20193;-80
2023/05/29 12:21:44;;;;;;;8.32;4.00;;;23.40;1.00;;;;;;5127855;27;20208;-78
2023/05/29 12:24:11;;;;;;;11.57;5.30;;;22.40;1.00;;;;;;5124356;27;20656;-78
2023/05/29 12:26:38;;;;;;;7.25;3.55;;;22.50;1.00;;;;;;5136239;27;20659;-78
2023/05/29 12:29:05;;;;;;;7.38;2.67;;;21.90;1.00;;;;;;5117571;27;20201;-77
2023/05/29 12:31:33;;;;;;;5.35;2.50;;;21.80;1.00;;;;;;5115726;27;20270;-78
2023/05/29 12:34:02;;;;;;;8.02;2.80;;;22.40;1.00;;;;;;5125444;27;20223;-79
2023/05/29 12:36:30;;;;;;;8.00;2.90;;;22.40;1.00;;;;;;5115497;27;20221;-80
2023/05/29 12:39:00;;;;;;;7.05;2.42;;;21.80;99.90;;;;;;5115297;27;20268;-77
2023/05/29 12:41:28;;;;;;;6.15;2.85;;;21.30;1.00;;;;;;5120321;27;20232;-79
2023/05/29 12:43:56;;;;;;;5.45;2.22;;;21.50;99.90;;;;;;5124567;27;20221;-78
2023/05/29 12:46:24;;;;;;;8.07;3.58;;;22.10;99.90;;;;;;5122312;27;20223;-77
2023/05/29 12:48:50;;;;;;;7.93;3.15;;;22.70;99.90;;;;;;5123805;27;20230;-77
2023/05/29 12:51:23;;;;;;;3.55;2.30;;;23.30;99.90;;;;;;5119796;27;20228;-78
2023/05/29 12:53:50;;;;;;;6.05;2.72;;;23.50;99.90;;;;;;5115502;27;20266;-78